Details From LOWI - Innsbruck Kranebitten
To GCGM - La Gomera
Flight Number -
Tags Generated
Created
Modified
Stats Distance 1,765 nm / 3,269 km
Max Altitude 0 ft / 0 m
Waypoints 8
Social Downloads 0
Likes 0
Share VATSIM

Download

Looking for another format? Having issues loading an existing format? Contact us
Advertisement - Login to hide

Notes

Generated

Route

LOWI ADISO MORIL CCH HIJ OSLAD LGM GCGM

ID Type Via Altitude Latitude Longitude Leg Dist Tot Dist Heading (true) Name
O LOWI APT - 0 ft / 0 m 47.25883˚ 11.33091˚ - 0 nm - -
ADISO FIX - 0 ft / 0 m 45.55917˚ 7.29333˚ 195 nm 195 nm 240° / 237° -
MORIL FIX - 0 ft / 0 m 43.06583˚ 2.35028˚ 259 nm 455 nm 237° / 233° -
CCH NDB - 0 ft / 0 m 40.90243˚ -1.29831˚ 208 nm 663 nm 233° / 230° CALAMOCHA NDB
HIJ VOR - 0 ft / 0 m 38.50813˚ -5.09968˚ 226 nm 890 nm 232° / 229° HINOJOSA VOR-DME
OSLAD FIX - 0 ft / 0 m 35.96667˚ -8.31417˚ 216 nm 1107 nm 226° / 224° -
LGM VOR - 0 ft / 0 m 28.02874˚ -17.21487˚ 657 nm 1764 nm 226° / 221° LA GOMERA VOR-DME
O GCGM APT - 0 ft / 0 m 28.02859˚ -17.22214˚ 0 nm 1765 nm 269° / 269° -

Altitude Profile

Advertisement - Login to hide

Weather


0- 5 10 15 20 25 30 35+ Temperature / ° C

Clouds and Precipitation
Forecast for 2018-05-24 00:00 UTC. Updated 4 hours ago

Ground ~20,000 ft ~40,000 ft Winds

LOWI

Details ICAO LOWI (INN)
Name Innsbruck Kranebitten
Region Austria
Timezone Europe/Vienna (UTC+2.0)
Stats Elevation 1,906 ft / 581 m (AMSL)
Location 47.260226° 11.343967°
Runways 1
Magnetic Variation 3.071° E

METAR

LOWI 240250Z AUTO 24003KT 9999 FEW100 BKN140 14/12 Q1019

Decode

TAF

TAF LOWI 232315Z 2400/2424 VRB02KT 9999 FEW050 SCT100 BKN300 TX22/2413Z TN13/2403Z PROB40 TEMPO 2400/2406 27010KT SHRA FEW060TCU BKN080 BECMG 2409/2411 08007KT SCT070 FEW070TCU TEMPO 2412/2418 27015G30KT TSRA FEW050 SCT070CB BKN090 BECMG 2420/2422 27005KT FEW070

Decode

Departure Runways

ID Width Length Bearing (true) Bearing (mag) Surface Threshold Offset Overrun Length
08 148 ft / 45 m 6,545 ft / 1,995 m 81.02° 77.95° Asphalt 338 ft / 103 m 0 ft / 0 m
26 148 ft / 45 m 6,545 ft / 1,995 m 261.04° 257.97° Asphalt 0 ft / 0 m 0 ft / 0 m

GCGM

Details ICAO GCGM (GMZ)
Name La Gomera
Region Canary Islands
Timezone Atlantic/Canary (UTC+1.0)
Stats Elevation 715 ft / 218 m (AMSL)
Location 28.029627° -17.214603°
Runways 1
Magnetic Variation 5.308° W

METAR

GCGM 240300Z AUTO 00000KT 9999 NCD 17/09 Q1019 RMK R09/VRB01KT ARP/VRB01KT

Decode

TAF

TAF GCGM 240200Z 2403/2503 20006KT 9999 SCT040 TX22/2414Z TN17/2405Z

Decode

Destination Runways

ID Width Length Bearing (true) Bearing (mag) Surface Threshold Offset Overrun Length
09 98 ft / 30 m 4,914 ft / 1,498 m 81.17° 86.48° Asphalt 0 ft / 0 m 0 ft / 0 m
27 98 ft / 30 m 4,914 ft / 1,498 m 261.18° 266.49° Asphalt 0 ft / 0 m 0 ft / 0 m